Los Angeles, California
Traffic Map
Current Weather Conditions
Los Angeles, California
Clear
Clear
73°
Feels Like: 73°
Wind Chill: 73° Ceiling: Unl
Heat Index: 73° Visibility: 10mi
Dew Point: 61° Wind: 6mph
Humidity: 66% Direction: ° ()
Pressure: 29.84in Gusts: 0mph
Raw Report DataKCQT 212147Z AUTO VRB05KT 10SM CLR 23/16 A2984 RMK AO2 SLP103 T02280161
Traffic Incident Summary
Active as of:
Severity:
Category:
InformationThere was an issue retrieving the traffic information for this location. Please try a different location or try again shortly.
Advertisements
Track Severe Weather on mobile